Time;durP1;ratioP1;P1;durP2;ratioP2;P2;SDS_P1;SDS_P2;PMS_P1;PMS_P2;Temp;Humidity;BMP_temperature;BMP_pressure;BME280_temperature;BME280_humidity;BME280_pressure;Samples;Min_cycle;Max_cycle;Signal;HPM_P1;HPM_P2
2024/04/08 00:00:19;;;;;;;11.80;1.98;;;17.90;99.90;;;;;;5036445;28;20024;-83
2024/04/08 00:02:49;;;;;;;5.82;1.83;;;17.90;99.90;;;;;;5036534;28;20063;-83
2024/04/08 00:05:18;;;;;;;5.72;2.17;;;17.90;99.90;;;;;;5036209;28;20058;-83
2024/04/08 00:07:44;;;;;;;7.43;2.03;;;17.90;99.90;;;;;;5036532;28;20164;-85
2024/04/08 00:10:10;;;;;;;6.38;2.15;;;17.80;99.90;;;;;;5053784;28;20029;-85
2024/04/08 00:12:40;;;;;;;5.15;1.75;;;17.80;99.90;;;;;;5053859;28;20044;-85
2024/04/08 00:15:07;;;;;;;9.57;2.40;;;17.80;99.90;;;;;;5036376;28;20028;-85
2024/04/08 00:17:33;;;;;;;6.78;2.40;;;17.70;99.90;;;;;;5036301;28;20025;-88
2024/04/08 00:19:59;;;;;;;6.78;2.28;;;17.70;99.90;;;;;;5036877;28;20043;-89
2024/04/08 00:22:24;;;;;;;8.18;2.00;;;17.70;99.90;;;;;;5053654;28;20438;-89
2024/04/08 00:24:53;;;;;;;5.88;1.90;;;17.70;99.90;;;;;;5036243;28;20029;-89
2024/04/08 00:27:19;;;;;;;8.10;1.88;;;17.70;99.90;;;;;;5035970;28;20096;-88
2024/04/08 00:29:45;;;;;;;7.70;2.28;;;17.70;99.90;;;;;;5036455;28;20064;-88
2024/04/08 00:32:12;;;;;;;9.80;2.10;;;17.60;99.90;;;;;;5035630;28;20401;-89
2024/04/08 00:34:39;;;;;;;5.55;2.13;;;17.60;99.90;;;;;;5036458;28;20095;-88
2024/04/08 00:37:05;;;;;;;7.03;2.30;;;17.60;99.90;;;;;;5053184;28;20486;-88
2024/04/08 00:39:31;;;;;;;9.80;1.73;;;17.50;99.90;;;;;;5053861;28;20052;-88
2024/04/08 00:41:58;;;;;;;7.57;2.13;;;17.60;99.90;;;;;;5036133;28;20041;-88
2024/04/08 00:44:24;;;;;;;7.95;2.67;;;17.60;99.90;;;;;;5035050;28;20067;-88
2024/04/08 00:46:50;;;;;;;5.80;1.90;;;17.60;99.90;;;;;;5027087;28;20068;-89
2024/04/08 00:49:16;;;;;;;7.82;1.90;;;17.60;99.90;;;;;;5031951;28;20052;-88
2024/04/08 00:51:44;;;;;;;5.82;2.30;;;17.70;99.90;;;;;;5037715;28;20111;-89
2024/04/08 00:54:10;;;;;;;7.70;1.45;;;17.70;99.90;;;;;;5016014;28;20029;-88
2024/04/08 00:56:40;;;;;;;8.32;2.03;;;17.60;99.90;;;;;;5016402;28;20117;-89
2024/04/08 00:59:08;;;;;;;6.80;1.83;;;17.60;99.90;;;;;;5016189;28;20038;-87
2024/04/08 01:01:34;;;;;;;7.65;2.00;;;17.70;99.90;;;;;;5015803;28;20467;-88
2024/04/08 01:03:59;;;;;;;6.15;2.05;;;17.60;99.90;;;;;;5032489;28;20029;-88
2024/04/08 01:06:25;;;;;;;7.15;2.13;;;17.60;99.90;;;;;;5016006;28;20029;-89
2024/04/08 01:08:51;;;;;;;7.78;2.20;;;17.60;99.90;;;;;;5032796;28;20460;-88
2024/04/08 01:11:17;;;;;;;8.20;1.98;;;17.70;99.90;;;;;;5033349;28;20068;-87
2024/04/08 01:13:42;;;;;;;8.65;1.67;;;17.60;99.90;;;;;;5016625;28;20382;-88
2024/04/08 01:16:08;;;;;;;13.40;2.20;;;17.60;99.90;;;;;;5032441;28;20029;-88
2024/04/08 01:18:34;;;;;;;6.75;2.08;;;17.70;99.90;;;;;;5046560;28;20021;-88
2024/04/08 01:21:00;;;;;;;4.25;2.03;;;17.70;99.90;;;;;;5036010;28;20037;-88
2024/04/08 01:23:28;;;;;;;8.05;1.98;;;17.70;99.90;;;;;;5030894;28;20032;-87
2024/04/08 01:25:55;;;;;;;5.78;1.85;;;17.60;99.90;;;;;;5018232;28;20026;-88
2024/04/08 01:28:21;;;;;;;7.32;2.10;;;17.60;99.90;;;;;;5019482;28;20124;-87
2024/04/08 01:30:49;;;;;;;5.75;2.10;;;17.60;99.90;;;;;;5037378;28;20041;-88
2024/04/08 01:33:18;;;;;;;8.07;1.95;;;17.50;99.90;;;;;;5038262;28;20053;-88
2024/04/08 01:35:44;;;;;;;5.07;2.00;;;17.50;99.90;;;;;;5039432;28;20120;-87
2024/04/08 01:38:09;;;;;;;5.05;2.00;;;17.50;99.90;;;;;;5029952;28;20052;-88
2024/04/08 01:40:35;;;;;;;5.30;2.13;;;17.40;99.90;;;;;;5037147;28;20025;-88
2024/04/08 01:43:00;;;;;;;7.70;2.38;;;17.40;99.90;;;;;;5019667;28;20482;-88
2024/04/08 01:45:26;;;;;;;9.02;1.75;;;17.40;99.90;;;;;;5019188;28;20211;-88
2024/04/08 01:47:52;;;;;;;7.03;1.98;;;17.40;99.90;;;;;;5019714;28;20447;-87
2024/04/08 01:50:17;;;;;;;4.88;1.80;;;17.40;99.90;;;;;;5018847;28;20052;-87
2024/04/08 01:52:43;;;;;;;6.65;1.88;;;17.30;99.90;;;;;;5019492;28;20372;-87
2024/04/08 01:56:24;;;;;;;5.22;1.77;;;17.30;99.90;;;;;;5545898;25;20520;-84
2024/04/08 01:58:50;;;;;;;9.60;2.08;;;17.40;99.90;;;;;;5477848;26;19994;-84
2024/04/08 02:01:15;;;;;;;9.75;2.35;;;17.30;99.90;;;;;;5476896;26;19998;-84
2024/04/08 02:03:41;;;;;;;6.30;2.63;;;17.40;99.90;;;;;;5509235;26;20491;-85
2024/04/08 02:06:06;;;;;;;4.85;2.15;;;17.30;99.90;;;;;;5509500;26;20061;-85
2024/04/08 02:08:32;;;;;;;6.13;2.20;;;17.30;99.90;;;;;;5509330;26;20002;-85
2024/04/08 02:10:57;;;;;;;5.85;1.80;;;17.30;99.90;;;;;;5477186;26;19994;-85
2024/04/08 02:13:23;;;;;;;8.40;2.25;;;17.30;99.90;;;;;;5476966;26;20009;-85
2024/04/08 02:15:48;;;;;;;9.63;2.22;;;17.30;99.90;;;;;;5509449;26;20008;-85
2024/04/08 02:18:14;;;;;;;4.63;1.90;;;17.20;99.90;;;;;;5476669;26;20353;-85
2024/04/08 02:20:40;;;;;;;13.32;2.88;;;17.20;99.90;;;;;;5477427;26;19998;-85
2024/04/08 02:23:06;;;;;;;7.38;2.20;;;17.20;99.90;;;;;;5477160;26;19994;-85
2024/04/08 02:25:42;;;;;;;7.40;2.33;;;17.20;99.90;;;;;;5476511;26;19994;-85
2024/04/08 02:28:08;;;;;;;9.30;1.80;;;17.20;99.90;;;;;;5509266;26;20463;-85
2024/04/08 02:30:35;;;;;;;9.93;2.00;;;17.20;99.90;;;;;;5476267;26;20001;-85
2024/04/08 02:33:05;;;;;;;9.48;2.15;;;17.10;99.90;;;;;;5508960;26;20437;-83
2024/04/08 02:35:37;;;;;;;6.90;1.70;;;17.10;99.90;;;;;;5476008;26;20053;-85
2024/04/08 02:38:08;;;;;;;7.03;2.10;;;17.00;99.90;;;;;;5509083;26;20062;-85
2024/04/08 02:40:34;;;;;;;5.82;2.25;;;17.00;99.90;;;;;;5476559;26;19994;-85
2024/04/08 02:43:02;;;;;;;12.60;3.20;;;17.00;99.90;;;;;;5509068;26;20066;-85
2024/04/08 02:45:28;;;;;;;6.75;2.20;;;17.00;99.90;;;;;;5478365;26;19998;-88
2024/04/08 02:47:56;;;;;;;5.97;2.30;;;17.00;99.90;;;;;;5511259;26;20002;-89
2024/04/08 02:50:22;;;;;;;5.90;2.05;;;17.00;99.90;;;;;;5478825;26;20017;-90
2024/04/08 02:52:47;;;;;;;9.00;2.15;;;16.90;99.90;;;;;;5477112;26;20008;-89
2024/04/08 02:55:13;;;;;;;7.28;2.05;;;16.90;99.90;;;;;;5489081;26;19993;-87
2024/04/08 02:57:38;;;;;;;7.43;2.22;;;16.90;99.90;;;;;;5507808;26;20043;-90
2024/04/08 03:00:05;;;;;;;6.30;1.92;;;16.90;99.90;;;;;;5509640;26;19990;-90
2024/04/08 03:02:30;;;;;;;10.70;2.28;;;16.90;99.90;;;;;;5508760;25;20005;-90
2024/04/08 03:04:56;;;;;;;6.93;1.98;;;16.90;99.90;;;;;;5509485;26;20319;-89
2024/04/08 03:07:21;;;;;;;12.10;2.30;;;16.80;99.90;;;;;;5492536;26;19998;-90
2024/04/08 03:09:51;;;;;;;7.55;2.38;;;16.90;99.90;;;;;;5491554;26;20066;-89
2024/04/08 03:12:16;;;;;;;7.63;2.13;;;16.90;99.90;;;;;;5491266;26;20018;-90
2024/04/08 03:14:42;;;;;;;7.10;2.33;;;16.90;99.90;;;;;;5491872;26;20312;-91
2024/04/08 03:17:08;;;;;;;6.72;1.98;;;16.80;99.90;;;;;;5493364;26;20058;-90
2024/04/08 03:19:33;;;;;;;11.07;2.42;;;16.80;99.90;;;;;;5492697;26;19994;-91
2024/04/08 03:21:59;;;;;;;6.43;2.63;;;16.80;99.90;;;;;;5493114;26;20384;-91
2024/04/08 03:24:27;;;;;;;5.05;2.10;;;16.70;99.90;;;;;;5492671;26;19994;-91
2024/04/08 03:26:53;;;;;;;5.05;1.83;;;16.60;99.90;;;;;;5493210;26;19986;-88
2024/04/08 03:29:18;;;;;;;7.78;2.17;;;16.60;99.90;;;;;;5490808;26;19994;-88
2024/04/08 03:31:44;;;;;;;8.75;2.05;;;16.60;99.90;;;;;;5491391;26;19990;-86
2024/04/08 03:34:09;;;;;;;7.88;1.95;;;16.60;99.90;;;;;;5492566;26;20427;-86
2024/04/08 03:36:35;;;;;;;4.15;2.10;;;16.50;99.90;;;;;;5490205;26;20005;-86
2024/04/08 03:39:01;;;;;;;4.53;2.10;;;16.50;99.90;;;;;;5491326;26;19998;-86
2024/04/08 03:41:26;;;;;;;6.13;2.20;;;16.50;99.90;;;;;;5491695;26;19998;-85
2024/04/08 03:43:52;;;;;;;7.28;2.13;;;16.50;99.90;;;;;;5491221;26;20453;-86
2024/04/08 03:46:17;;;;;;;11.68;2.60;;;16.50;99.90;;;;;;5492174;26;20018;-85
2024/04/08 03:48:43;;;;;;;8.15;2.33;;;16.50;99.90;;;;;;5491699;26;20006;-86
2024/04/08 03:51:10;;;;;;;7.90;2.47;;;16.50;99.90;;;;;;5456242;26;19994;-86
2024/04/08 03:53:35;;;;;;;10.40;2.22;;;16.50;99.90;;;;;;5453881;26;20001;-89
2024/04/08 03:56:09;;;;;;;8.30;2.10;;;16.40;99.90;;;;;;5453718;26;20327;-87
2024/04/08 03:58:37;;;;;;;8.88;2.40;;;16.50;99.90;;;;;;5455726;26;20218;-88
2024/04/08 04:01:03;;;;;;;9.60;2.50;;;16.40;99.90;;;;;;5455857;26;20079;-89
2024/04/08 04:03:28;;;;;;;5.90;2.38;;;16.40;99.90;;;;;;5453851;26;20385;-89
2024/04/08 04:05:54;;;;;;;9.75;2.83;;;16.40;99.90;;;;;;5454600;26;20002;-89
2024/04/08 04:08:19;;;;;;;7.63;2.45;;;16.40;99.90;;;;;;5454419;26;20002;-90
2024/04/08 04:10:45;;;;;;;11.30;2.53;;;16.30;99.90;;;;;;5456143;26;19999;-88
2024/04/08 04:13:11;;;;;;;7.20;2.58;;;16.30;99.90;;;;;;5455740;26;19998;-89
2024/04/08 04:15:36;;;;;;;11.27;2.42;;;16.30;99.90;;;;;;5455315;26;19995;-89
2024/04/08 04:18:02;;;;;;;10.13;3.42;;;16.30;99.90;;;;;;5454379;26;19998;-89
2024/04/08 04:20:38;;;;;;;9.80;3.15;;;16.30;99.90;;;;;;5455402;26;20071;-88
2024/04/08 04:23:05;;;;;;;9.15;2.42;;;16.30;99.90;;;;;;5454432;26;20049;-89
2024/04/08 04:25:30;;;;;;;8.20;2.10;;;16.30;99.90;;;;;;5455510;26;20063;-89
2024/04/08 04:27:57;;;;;;;5.35;2.30;;;16.20;99.90;;;;;;5455533;26;20006;-89
2024/04/08 04:30:23;;;;;;;7.95;2.38;;;16.20;99.90;;;;;;5453773;26;19995;-89
2024/04/08 04:32:48;;;;;;;6.93;2.60;;;16.10;99.90;;;;;;5454028;26;19994;-89
2024/04/08 04:35:14;;;;;;;6.38;2.30;;;16.10;99.90;;;;;;5454167;26;20003;-90
2024/04/08 04:37:40;;;;;;;9.50;2.60;;;16.10;99.90;;;;;;5455331;26;20003;-90
2024/04/08 04:40:08;;;;;;;9.18;2.42;;;16.00;99.90;;;;;;5455614;26;19994;-88
2024/04/08 04:42:33;;;;;;;7.20;2.75;;;16.00;99.90;;;;;;5454997;26;19995;-89
2024/04/08 04:44:59;;;;;;;6.55;2.28;;;15.90;99.90;;;;;;5456168;26;20060;-88
2024/04/08 04:47:25;;;;;;;11.63;2.17;;;15.80;99.90;;;;;;5453608;26;19998;-89
2024/04/08 04:49:50;;;;;;;11.13;2.50;;;15.90;99.90;;;;;;5454305;26;19998;-89
2024/04/08 04:52:16;;;;;;;8.20;2.40;;;16.00;99.90;;;;;;5455597;26;20002;-89
2024/04/08 04:54:41;;;;;;;9.25;2.53;;;15.90;99.90;;;;;;5443087;26;19994;-90
2024/04/08 04:57:07;;;;;;;12.60;3.08;;;15.90;99.90;;;;;;5419519;26;19999;-90
2024/04/08 04:59:33;;;;;;;7.35;2.33;;;15.90;99.90;;;;;;5418909;26;19999;-90
2024/04/08 05:01:59;;;;;;;18.27;3.10;;;16.00;99.90;;;;;;5388352;26;20317;-90
2024/04/08 05:04:24;;;;;;;11.18;2.60;;;15.90;99.90;;;;;;5387433;26;19991;-90
2024/04/08 05:06:50;;;;;;;9.27;2.50;;;15.90;99.90;;;;;;5419768;26;20008;-90
2024/04/08 05:09:15;;;;;;;5.53;2.38;;;15.80;99.90;;;;;;5420020;26;20006;-90
2024/04/08 05:11:41;;;;;;;11.57;2.97;;;15.80;99.90;;;;;;5419826;26;19996;-90
2024/04/08 05:14:07;;;;;;;6.90;2.58;;;15.80;99.90;;;;;;5395186;26;20010;-82
2024/04/08 05:16:32;;;;;;;7.50;2.20;;;15.90;99.90;;;;;;5429260;26;20006;-85
2024/04/08 05:18:58;;;;;;;5.97;2.47;;;15.90;99.90;;;;;;5437719;26;19991;-85
2024/04/08 05:21:24;;;;;;;11.95;2.70;;;15.90;99.90;;;;;;5407597;26;20005;-85
2024/04/08 05:23:49;;;;;;;10.52;2.80;;;15.80;99.90;;;;;;5408211;26;20007;-86
2024/04/08 05:26:16;;;;;;;9.60;2.08;;;15.80;99.90;;;;;;5406973;26;20006;-86
2024/04/08 05:28:41;;;;;;;11.88;2.55;;;15.80;99.90;;;;;;5405524;26;19991;-87
2024/04/08 05:31:07;;;;;;;8.27;2.63;;;15.80;99.90;;;;;;5404280;26;20015;-87
2024/04/08 05:33:33;;;;;;;10.00;2.67;;;15.80;99.90;;;;;;5405592;26;19998;-86
2024/04/08 05:35:59;;;;;;;5.88;2.15;;;15.80;99.90;;;;;;5405268;26;20027;-86
2024/04/08 05:38:25;;;;;;;11.80;2.70;;;15.80;99.90;;;;;;5424478;26;19995;-86
2024/04/08 05:40:51;;;;;;;12.63;3.75;;;15.80;99.90;;;;;;5387802;26;20003;-86
2024/04/08 05:43:16;;;;;;;10.90;3.42;;;15.80;99.90;;;;;;5387230;26;19999;-86
2024/04/08 05:45:42;;;;;;;11.00;3.17;;;15.90;99.90;;;;;;5417854;26;20003;-86
2024/04/08 05:48:08;;;;;;;13.82;3.00;;;15.90;99.90;;;;;;5387073;26;20483;-86
2024/04/08 05:50:34;;;;;;;7.40;3.00;;;15.90;99.90;;;;;;5417945;26;20006;-86
2024/04/08 05:53:00;;;;;;;10.30;3.28;;;16.00;99.90;;;;;;5386882;26;20008;-87
2024/04/08 05:55:28;;;;;;;8.52;2.67;;;15.90;99.90;;;;;;5418000;26;20086;-87
2024/04/08 05:57:54;;;;;;;11.18;2.92;;;15.90;99.90;;;;;;5387253;26;20440;-86
2024/04/08 06:00:19;;;;;;;7.43;3.00;;;15.90;99.90;;;;;;5418488;26;19999;-87
2024/04/08 06:02:49;;;;;;;9.25;3.13;;;16.00;99.90;;;;;;5387080;26;19991;-87
2024/04/08 06:05:19;;;;;;;10.77;3.47;;;16.00;99.90;;;;;;5418373;26;19991;-87
2024/04/08 06:07:48;;;;;;;8.15;3.22;;;16.10;99.90;;;;;;5417545;26;20015;-87
2024/04/08 06:10:21;;;;;;;7.53;2.90;;;16.10;99.90;;;;;;5387078;26;20068;-87
2024/04/08 06:12:47;;;;;;;7.90;2.30;;;16.10;99.90;;;;;;5386240;26;20019;-87
2024/04/08 06:15:14;;;;;;;4.95;2.40;;;16.00;99.90;;;;;;5387156;26;19999;-87
2024/04/08 06:17:39;;;;;;;12.02;2.70;;;16.00;99.90;;;;;;5386526;26;20003;-87
2024/04/08 06:20:06;;;;;;;8.05;2.45;;;15.90;99.90;;;;;;5417858;26;20061;-87
2024/04/08 06:22:31;;;;;;;11.48;2.58;;;16.00;99.90;;;;;;5386156;26;19999;-86
2024/04/08 06:24:57;;;;;;;10.90;2.70;;;16.00;99.90;;;;;;5386811;26;20378;-86
2024/04/08 06:27:23;;;;;;;13.77;3.13;;;16.00;99.90;;;;;;5386850;26;19995;-87
2024/04/08 06:29:49;;;;;;;12.18;2.80;;;16.00;99.90;;;;;;5386959;26;20000;-85
2024/04/08 06:32:14;;;;;;;6.53;2.33;;;16.10;99.90;;;;;;5386420;26;20226;-86
2024/04/08 06:34:40;;;;;;;15.95;2.42;;;16.10;99.90;;;;;;5386162;26;20069;-85
2024/04/08 06:37:06;;;;;;;6.68;2.53;;;16.20;99.90;;;;;;5417581;26;20002;-86
2024/04/08 06:39:31;;;;;;;5.68;2.50;;;16.20;99.90;;;;;;5386142;26;20008;-83
2024/04/08 06:41:57;;;;;;;7.22;2.47;;;16.10;99.90;;;;;;5388204;26;20002;-86
2024/04/08 06:44:22;;;;;;;10.20;2.55;;;16.20;99.90;;;;;;5389940;26;20007;-86
2024/04/08 06:46:48;;;;;;;17.02;3.08;;;16.20;99.90;;;;;;5389483;26;19991;-85
2024/04/08 06:49:14;;;;;;;12.15;2.40;;;16.20;99.90;;;;;;5389490;26;20132;-86
2024/04/08 06:51:39;;;;;;;6.40;2.38;;;16.20;99.90;;;;;;5389384;26;19992;-86
2024/04/08 06:54:05;;;;;;;7.03;2.10;;;16.30;99.90;;;;;;5420370;26;20447;-85
2024/04/08 06:56:30;;;;;;;8.18;2.13;;;16.40;99.90;;;;;;5389518;26;19992;-85
2024/04/08 06:58:56;;;;;;;6.03;2.58;;;16.50;99.90;;;;;;5389856;26;19999;-86
2024/04/08 07:01:21;;;;;;;6.53;2.28;;;16.50;99.90;;;;;;5390182;26;20484;-86
2024/04/08 07:03:47;;;;;;;10.60;2.28;;;16.60;99.90;;;;;;5389495;26;20003;-85
2024/04/08 07:06:13;;;;;;;10.68;2.17;;;16.60;99.90;;;;;;5390338;26;20309;-85
2024/04/08 07:08:38;;;;;;;6.25;2.08;;;16.70;99.90;;;;;;5389240;26;20006;-85
2024/04/08 07:11:04;;;;;;;6.00;2.05;;;16.70;99.90;;;;;;5389641;26;20006;-85
2024/04/08 07:13:30;;;;;;;11.32;2.35;;;16.80;99.90;;;;;;5420333;26;20328;-85
2024/04/08 07:15:56;;;;;;;9.85;2.45;;;16.80;99.90;;;;;;5389664;26;19999;-85
2024/04/08 07:18:22;;;;;;;7.70;2.50;;;16.80;99.90;;;;;;5420850;26;19999;-86
2024/04/08 07:20:48;;;;;;;8.82;2.25;;;16.80;99.90;;;;;;5389353;26;19995;-85
2024/04/08 07:23:13;;;;;;;10.43;2.30;;;16.90;99.90;;;;;;5420557;26;19996;-86
2024/04/08 07:25:39;;;;;;;7.55;2.33;;;16.90;99.90;;;;;;5388900;26;20005;-86
2024/04/08 07:28:05;;;;;;;8.13;2.05;;;16.90;99.90;;;;;;5389357;26;20467;-85
2024/04/08 07:30:30;;;;;;;10.27;2.83;;;17.00;99.90;;;;;;5388539;26;20003;-85
2024/04/08 07:32:57;;;;;;;7.05;2.50;;;17.00;99.90;;;;;;5389490;26;20436;-85
2024/04/08 07:35:23;;;;;;;10.90;2.42;;;17.10;99.90;;;;;;5389187;26;20000;-85
2024/04/08 07:37:49;;;;;;;8.38;1.92;;;17.10;99.90;;;;;;5388731;26;19996;-85
2024/04/08 07:40:15;;;;;;;14.38;2.65;;;17.20;99.90;;;;;;5420882;26;19999;-86
2024/04/08 07:42:42;;;;;;;8.70;2.40;;;17.20;99.90;;;;;;5419106;26;20013;-85
2024/04/08 07:45:08;;;;;;;10.27;2.20;;;17.20;99.90;;;;;;5420512;26;20020;-86
2024/04/08 07:47:34;;;;;;;9.02;2.20;;;17.30;99.90;;;;;;5388251;26;20000;-86
2024/04/08 07:50:02;;;;;;;7.35;1.90;;;17.30;99.90;;;;;;5419963;26;20477;-86
2024/04/08 07:52:27;;;;;;;9.88;2.13;;;17.40;99.90;;;;;;5388623;26;19992;-86
2024/04/08 07:54:53;;;;;;;11.25;1.95;;;17.40;99.90;;;;;;5410108;26;19990;-87
2024/04/08 07:57:19;;;;;;;7.30;1.90;;;17.50;99.90;;;;;;5454526;26;20455;-86
2024/04/08 07:59:45;;;;;;;8.57;1.95;;;17.50;99.90;;;;;;5454218;26;19987;-86
2024/04/08 08:02:10;;;;;;;6.55;2.13;;;17.60;99.90;;;;;;5456495;26;20335;-87
2024/04/08 08:04:36;;;;;;;5.97;2.03;;;17.60;99.90;;;;;;5454067;26;19991;-87
2024/04/08 08:07:02;;;;;;;8.23;1.60;;;17.70;99.90;;;;;;5454163;26;19999;-86
2024/04/08 08:09:27;;;;;;;8.80;1.27;;;17.70;99.90;;;;;;5453957;26;20401;-86
2024/04/08 08:11:53;;;;;;;6.70;1.75;;;17.90;99.90;;;;;;5455525;26;20009;-86
2024/04/08 08:14:19;;;;;;;7.22;1.40;;;18.00;99.90;;;;;;5454070;26;19994;-85
2024/04/08 08:16:45;;;;;;;6.25;1.88;;;18.10;99.90;;;;;;5453755;26;20005;-86
2024/04/08 08:19:11;;;;;;;6.35;1.50;;;18.30;99.90;;;;;;5456136;26;20001;-86
2024/04/08 08:21:36;;;;;;;9.52;1.63;;;18.30;99.90;;;;;;5453564;26;20007;-86
2024/04/08 08:24:02;;;;;;;4.65;1.38;;;18.30;99.90;;;;;;5454182;26;20002;-86
2024/04/08 08:26:28;;;;;;;6.40;1.10;;;18.50;99.90;;;;;;5454395;26;20007;-88
2024/04/08 08:28:55;;;;;;;3.95;1.10;;;18.60;99.90;;;;;;5453769;26;20036;-87
2024/04/08 08:31:20;;;;;;;7.35;1.50;;;18.80;99.90;;;;;;5455473;26;20003;-88
2024/04/08 08:33:47;;;;;;;10.30;1.42;;;18.80;99.30;;;;;;5455128;26;19994;-87
2024/04/08 08:36:13;;;;;;;8.73;1.90;;;18.90;99.50;;;;;;5454398;26;20005;-85
2024/04/08 08:38:38;;;;;;;7.97;1.48;;;18.90;99.30;;;;;;5454094;26;19991;-85
2024/04/08 08:41:05;;;;;;;5.82;1.50;;;19.00;99.90;;;;;;5454211;26;19999;-88
2024/04/08 08:43:32;;;;;;;4.28;1.25;;;19.00;99.70;;;;;;5454485;26;20031;-85
2024/04/08 08:45:58;;;;;;;4.90;1.10;;;19.00;99.10;;;;;;5453945;26;19995;-85
2024/04/08 08:48:24;;;;;;;6.45;1.27;;;19.10;98.80;;;;;;5455428;26;19991;-86
2024/04/08 08:50:50;;;;;;;4.72;0.90;;;19.20;97.10;;;;;;5455174;26;20066;-86
2024/04/08 08:53:16;;;;;;;4.28;1.50;;;19.40;96.60;;;;;;5454119;26;20385;-86
2024/04/08 08:55:43;;;;;;;7.18;1.73;;;19.50;95.60;;;;;;5452881;26;20003;-86
2024/04/08 08:58:10;;;;;;;8.63;1.30;;;19.60;95.90;;;;;;5455473;26;20316;-85
2024/04/08 09:00:39;;;;;;;3.47;1.23;;;19.70;95.60;;;;;;5453316;26;20035;-86
2024/04/08 09:03:12;;;;;;;6.20;1.27;;;19.80;95.30;;;;;;5453810;26;20436;-86
2024/04/08 09:05:37;;;;;;;6.18;1.20;;;19.90;95.70;;;;;;5451949;26;20039;-86
2024/04/08 09:08:03;;;;;;;6.03;1.40;;;19.90;95.30;;;;;;5455118;26;19991;-86
2024/04/08 09:10:43;;;;;;;2.15;1.00;;;20.00;94.20;;;;;;5453679;26;20009;-85
2024/04/08 09:13:19;;;;;;;6.47;1.83;;;20.20;94.80;;;;;;5453768;26;20343;-85
2024/04/08 09:15:45;;;;;;;4.15;1.10;;;20.30;94.40;;;;;;5454351;26;19991;-85
2024/04/08 09:18:10;;;;;;;4.30;1.20;;;20.40;94.10;;;;;;5453784;26;20010;-86
2024/04/08 09:20:36;;;;;;;11.18;1.83;;;20.40;94.30;;;;;;5454730;26;20001;-86
2024/04/08 09:23:02;;;;;;;1.95;0.95;;;20.40;94.30;;;;;;5455173;26;20005;-85
2024/04/08 09:25:28;;;;;;;8.25;1.23;;;20.40;93.70;;;;;;5455216;26;19990;-86
2024/04/08 09:27:54;;;;;;;5.65;1.40;;;20.40;93.70;;;;;;5452647;26;19995;-86
2024/04/08 09:30:19;;;;;;;4.88;1.55;;;20.50;93.90;;;;;;5453574;26;20002;-86
2024/04/08 09:32:45;;;;;;;2.92;0.98;;;20.50;93.80;;;;;;5453854;26;20420;-86
2024/04/08 09:35:11;;;;;;;8.93;1.73;;;20.60;92.80;;;;;;5454364;26;20005;-86
2024/04/08 09:37:37;;;;;;;5.75;1.25;;;20.60;92.20;;;;;;5454193;26;19991;-85
2024/04/08 09:40:05;;;;;;;6.85;1.50;;;20.60;92.10;;;;;;5452803;26;20005;-85
2024/04/08 09:42:33;;;;;;;12.20;1.30;;;20.70;92.10;;;;;;5453474;26;20003;-85
2024/04/08 09:45:03;;;;;;;9.15;1.30;;;20.80;91.80;;;;;;5452743;26;20428;-86
2024/04/08 09:47:30;;;;;;;4.55;1.30;;;20.90;91.60;;;;;;5452880;26;19991;-86
2024/04/08 09:49:59;;;;;;;7.45;1.40;;;20.90;91.60;;;;;;5452599;26;20001;-85
2024/04/08 09:52:25;;;;;;;7.40;1.23;;;20.80;92.60;;;;;;5452603;26;20066;-86
2024/04/08 09:54:52;;;;;;;6.38;1.42;;;20.90;92.70;;;;;;5440589;26;19999;-85
2024/04/08 09:57:25;;;;;;;6.78;1.60;;;21.00;92.30;;;;;;5387761;26;19995;-86
2024/04/08 09:59:54;;;;;;;5.72;1.40;;;21.10;92.30;;;;;;5386901;26;20007;-86
2024/04/08 10:02:41;;;;;;;5.72;1.30;;;21.10;92.40;;;;;;5418896;26;19995;-86
2024/04/08 10:05:07;;;;;;;14.65;1.15;;;21.20;91.90;;;;;;5387665;26;20007;-85
2024/04/08 10:07:33;;;;;;;5.55;1.30;;;21.30;91.60;;;;;;5387413;26;20000;-85
2024/04/08 10:10:03;;;;;;;6.85;1.50;;;21.40;91.40;;;;;;5386982;26;20421;-85
2024/04/08 10:12:34;;;;;;;7.75;1.38;;;21.60;91.40;;;;;;5387727;26;20072;-86
2024/04/08 10:15:14;;;;;;;4.93;1.33;;;21.70;90.90;;;;;;5386928;26;19996;-86
2024/04/08 10:17:48;;;;;;;9.05;1.30;;;21.80;91.10;;;;;;5421201;26;20011;-85
2024/04/08 10:20:16;;;;;;;7.95;1.15;;;21.80;91.10;;;;;;5390949;26;20429;-85
2024/04/08 10:22:43;;;;;;;6.60;1.45;;;21.90;91.40;;;;;;5389813;26;20000;-86
2024/04/08 10:25:37;;;;;;;3.00;1.10;;;21.90;90.80;;;;;;5390316;26;20007;-85
2024/04/08 10:28:04;;;;;;;4.00;1.20;;;22.00;91.10;;;;;;5390830;26;20003;-86
2024/04/08 10:30:32;;;;;;;6.85;1.40;;;22.00;90.60;;;;;;5390747;26;20006;-86
2024/04/08 10:32:58;;;;;;;7.30;1.40;;;22.10;90.20;;;;;;5390138;26;20145;-85
2024/04/08 10:35:24;;;;;;;3.85;1.00;;;22.10;90.50;;;;;;5390165;26;20015;-86
2024/04/08 10:37:50;;;;;;;5.90;1.20;;;22.00;90.90;;;;;;5389360;26;20068;-86
2024/04/08 10:40:15;;;;;;;3.63;1.20;;;22.10;91.60;;;;;;5421496;26;19992;-87
2024/04/08 10:42:41;;;;;;;6.78;1.13;;;22.30;87.90;;;;;;5420476;26;20337;-85
2024/04/08 10:45:07;;;;;;;8.10;1.30;;;22.50;88.00;;;;;;5420895;26;19996;-84
2024/04/08 10:47:33;;;;;;;4.75;1.35;;;22.50;88.40;;;;;;5390112;26;20049;-86
2024/04/08 10:49:58;;;;;;;8.27;1.30;;;22.40;88.30;;;;;;5389467;26;20019;-86
2024/04/08 10:52:24;;;;;;;2.13;1.20;;;22.40;87.70;;;;;;5421151;26;20340;-86
2024/04/08 10:54:49;;;;;;;5.95;1.30;;;22.40;88.30;;;;;;5420269;26;19995;-87
2024/04/08 10:57:15;;;;;;;6.10;1.40;;;22.50;87.90;;;;;;5421055;26;20006;-86
2024/04/08 10:59:41;;;;;;;4.20;1.40;;;22.40;87.40;;;;;;5420964;26;19999;-85
2024/04/08 11:02:13;;;;;;;6.32;1.40;;;22.40;87.00;;;;;;5421107;26;19999;-86
2024/04/08 11:04:39;;;;;;;7.85;1.40;;;22.40;87.70;;;;;;5421303;26;20436;-86
2024/04/08 11:07:05;;;;;;;6.35;1.38;;;22.30;88.30;;;;;;5421066;26;19999;-86
2024/04/08 11:09:31;;;;;;;10.45;1.50;;;22.20;88.40;;;;;;5421096;26;19995;-86
2024/04/08 11:11:56;;;;;;;4.40;1.48;;;22.20;86.80;;;;;;5389555;26;20000;-86
2024/04/08 11:14:22;;;;;;;5.03;1.20;;;22.30;87.80;;;;;;5389783;26;20003;-86
2024/04/08 11:16:48;;;;;;;6.13;1.20;;;22.40;87.60;;;;;;5420688;26;19996;-86
2024/04/08 11:19:13;;;;;;;5.20;1.35;;;22.50;86.10;;;;;;5389491;26;20003;-85
2024/04/08 11:21:39;;;;;;;4.78;1.20;;;22.70;85.80;;;;;;5389348;26;19996;-86
2024/04/08 11:24:10;;;;;;;5.55;1.00;;;22.80;85.50;;;;;;5388798;26;20043;-86
2024/04/08 11:26:36;;;;;;;5.07;1.20;;;22.80;86.40;;;;;;5420291;26;20000;-85
2024/04/08 11:29:02;;;;;;;6.15;1.05;;;22.70;88.60;;;;;;5388242;26;20332;-85
2024/04/08 11:31:28;;;;;;;7.85;1.42;;;22.60;90.20;;;;;;5389811;26;19999;-85
2024/04/08 11:33:54;;;;;;;6.05;1.27;;;22.50;90.80;;;;;;5420154;26;20007;-85
2024/04/08 11:36:19;;;;;;;7.43;1.35;;;22.60;91.40;;;;;;5420637;26;19999;-85
2024/04/08 11:38:45;;;;;;;6.18;1.23;;;22.60;91.10;;;;;;5419751;26;20458;-85
2024/04/08 11:41:10;;;;;;;4.45;1.10;;;22.70;90.20;;;;;;5420520;26;20010;-86
2024/04/08 11:43:36;;;;;;;6.63;1.65;;;22.80;90.30;;;;;;5389078;26;19991;-86
2024/04/08 11:46:02;;;;;;;5.05;1.10;;;22.80;90.10;;;;;;5420145;26;20301;-85
2024/04/08 11:48:28;;;;;;;7.65;1.38;;;22.90;91.00;;;;;;5388933;26;20333;-86
2024/04/08 11:50:53;;;;;;;5.20;1.17;;;22.90;90.00;;;;;;5419736;26;20000;-86
2024/04/08 11:53:19;;;;;;;5.68;1.30;;;23.00;89.10;;;;;;5420171;26;20002;-86
2024/04/08 11:55:44;;;;;;;8.27;1.35;;;23.10;87.90;;;;;;5435008;26;20009;-85
2024/04/08 11:58:10;;;;;;;7.32;1.48;;;23.10;85.90;;;;;;5456266;26;20082;-86
2024/04/08 12:00:36;;;;;;;3.83;1.50;;;23.20;86.40;;;;;;5455072;26;20075;-87
2024/04/08 12:03:02;;;;;;;3.20;1.20;;;23.30;83.80;;;;;;5455465;26;20001;-86
2024/04/08 12:05:27;;;;;;;5.65;1.42;;;23.50;81.50;;;;;;5456565;26;19999;-86
2024/04/08 12:07:53;;;;;;;8.60;1.50;;;23.60;82.70;;;;;;5454179;26;20006;-86
2024/04/08 12:10:18;;;;;;;4.95;1.10;;;23.70;81.80;;;;;;5456119;26;19995;-86
2024/04/08 12:12:44;;;;;;;6.47;1.40;;;23.80;82.30;;;;;;5454199;26;20001;-83
2024/04/08 12:15:10;;;;;;;5.28;1.23;;;23.90;82.30;;;;;;5456313;26;20049;-85
2024/04/08 12:17:35;;;;;;;6.63;1.35;;;24.10;82.60;;;;;;5454625;26;19987;-86
2024/04/08 12:20:02;;;;;;;5.38;1.15;;;24.20;79.00;;;;;;5453951;26;19991;-86
2024/04/08 12:22:28;;;;;;;4.43;1.08;;;24.20;77.20;;;;;;5454378;26;20006;-85
2024/04/08 12:24:53;;;;;;;5.13;1.23;;;24.30;78.10;;;;;;5454193;26;20021;-86
2024/04/08 12:27:20;;;;;;;4.10;1.00;;;24.30;71.40;;;;;;5454703;26;20022;-85
2024/04/08 12:29:45;;;;;;;5.45;1.10;;;24.50;70.50;;;;;;5453670;26;20002;-83
2024/04/08 12:32:11;;;;;;;4.32;0.93;;;24.60;70.50;;;;;;5456084;26;19995;-85
2024/04/08 12:34:36;;;;;;;5.18;1.27;;;24.70;70.90;;;;;;5455471;26;20428;-84
2024/04/08 12:37:02;;;;;;;3.17;1.00;;;24.90;73.20;;;;;;5455630;26;20431;-85
2024/04/08 12:39:28;;;;;;;4.25;1.20;;;24.90;70.00;;;;;;5452427;26;19999;-86
2024/04/08 12:41:53;;;;;;;4.18;1.00;;;25.10;68.40;;;;;;5454709;26;20442;-85